Time;durP1;ratioP1;P1;durP2;ratioP2;P2;SDS_P1;SDS_P2;PMS_P1;PMS_P2;Temp;Humidity;BMP_temperature;BMP_pressure;BME280_temperature;BME280_humidity;BME280_pressure;Samples;Min_cycle;Max_cycle;Signal;HPM_P1;HPM_P2
2023/05/17 00:02:09;;;;;;;1.80;1.42;;;;;;;19.22;59.32;96863.97;10413285;28;20045;-55
2023/05/17 00:07:29;;;;;;;1.50;1.40;;;;;;;19.20;59.20;96856.19;10393410;28;20041;-55
2023/05/17 00:12:48;;;;;;;1.30;1.20;;;;;;;19.20;59.34;96852.69;10419781;28;20100;-55
2023/05/17 00:18:08;;;;;;;1.73;1.48;;;;;;;19.20;59.29;96867.00;10432602;28;20056;-55
2023/05/17 00:23:27;;;;;;;1.17;1.00;;;;;;;19.19;59.22;96870.00;10394088;28;20053;-55
2023/05/17 00:28:47;;;;;;;3.63;1.50;;;;;;;19.19;59.15;96870.00;10421825;28;20046;-55
2023/05/17 00:34:07;;;;;;;1.45;1.30;;;;;;;19.17;59.19;96862.25;10402176;28;20045;-55
2023/05/17 00:39:26;;;;;;;1.40;1.30;;;;;;;19.17;59.13;96865.72;10394464;28;20903;-55
2023/05/17 00:44:46;;;;;;;2.22;1.42;;;;;;;19.17;59.11;96873.03;10390619;28;20038;-55
2023/05/17 00:50:05;;;;;;;1.33;1.23;;;;;;;19.16;59.12;96885.72;10419625;28;20510;-55
2023/05/17 00:55:25;;;;;;;1.30;1.20;;;;;;;19.16;59.04;96893.06;10395611;28;20410;-55
2023/05/17 01:00:45;;;;;;;1.20;1.10;;;;;;;19.15;59.07;96894.16;10416934;28;20049;-55
2023/05/17 01:06:05;;;;;;;1.30;1.20;;;;;;;19.15;58.99;96904.94;10416030;28;20033;-55
2023/05/17 01:11:47;;;;;;;1.10;1.00;;;;;;;19.13;59.07;96905.28;10419383;28;20407;-55
2023/05/17 01:17:17;;;;;;;1.92;1.20;;;;;;;19.14;59.06;96901.47;10392551;28;20049;-55
2023/05/17 01:22:55;;;;;;;1.42;1.20;;;;;;;19.13;59.08;96894.50;10428865;28;20045;-55
2023/05/17 01:28:15;;;;;;;1.40;1.30;;;;;;;19.13;58.97;96909.88;10420731;28;20422;-55
2023/05/17 01:33:35;;;;;;;1.23;1.13;;;;;;;19.12;58.90;96908.31;10394125;28;20073;-55
2023/05/17 01:38:55;;;;;;;1.30;1.20;;;;;;;19.12;58.97;96908.31;10402054;28;20038;-55
2023/05/17 01:44:37;;;;;;;1.40;1.10;;;;;;;19.10;58.85;96900.50;10389200;28;20045;-55
2023/05/17 01:49:58;;;;;;;1.05;1.05;;;;;;;19.11;58.91;96904.00;10406476;28;20046;-55
2023/05/17 01:55:36;;;;;;;1.67;1.13;;;;;;;19.10;58.84;96905.91;10390642;28;20045;-55
2023/05/17 02:00:57;;;;;;;1.10;1.10;;;;;;;19.09;58.75;96904.34;10398597;28;20091;-55
2023/05/17 02:06:16;;;;;;;1.20;1.10;;;;;;;19.09;58.78;96909.75;10423822;28;20491;-55
2023/05/17 02:11:36;;;;;;;1.27;1.17;;;;;;;19.08;58.75;96915.47;10397216;28;20692;-55
2023/05/17 02:16:55;;;;;;;1.10;1.00;;;;;;;19.07;58.79;96917.38;10414062;28;20045;-55
2023/05/17 02:22:15;;;;;;;1.33;1.00;;;;;;;19.07;58.70;96922.78;10387844;28;20049;-55
2023/05/17 02:27:35;;;;;;;1.10;1.00;;;;;;;19.06;58.63;96915.75;10399430;28;20041;-55
2023/05/17 02:32:55;;;;;;;1.23;1.02;;;;;;;19.06;58.57;96934.66;10387796;28;20434;-55
2023/05/17 02:38:15;;;;;;;1.50;1.23;;;;;;;19.06;58.68;96939.28;10427637;28;20041;-55
2023/05/17 02:43:34;;;;;;;0.90;0.90;;;;;;;19.05;58.57;96941.19;10423066;28;20046;-55
2023/05/17 02:48:56;;;;;;;1.00;1.00;;;;;;;19.04;58.53;96949.59;10403929;28;20517;-55
2023/05/17 02:54:16;;;;;;;0.90;0.90;;;;;;;19.04;58.62;96955.78;10413931;28;20100;-55
2023/05/17 02:59:36;;;;;;;1.75;0.98;;;;;;;19.04;58.45;96955.00;10425800;28;20037;-55
2023/05/17 03:04:55;;;;;;;0.93;0.93;;;;;;;19.04;58.53;96950.38;10408653;28;20046;-55
2023/05/17 03:10:15;;;;;;;0.90;0.90;;;;;;;19.03;58.51;96959.59;10400475;28;20080;-55
2023/05/17 03:15:37;;;;;;;0.93;0.93;;;;;;;19.02;58.50;96955.31;10388047;28;20042;-55
2023/05/17 03:20:57;;;;;;;0.80;0.80;;;;;;;19.01;58.36;96956.41;10423114;28;20092;-55
2023/05/17 03:26:18;;;;;;;1.00;1.00;;;;;;;19.01;58.30;96966.44;10415354;28;20045;-55
2023/05/17 03:31:42;;;;;;;1.00;1.00;;;;;;;19.01;58.30;96977.22;10424416;28;20042;-56
2023/05/17 03:37:02;;;;;;;1.00;1.00;;;;;;;19.00;58.11;96979.13;10424730;28;20041;-55
2023/05/17 03:42:22;;;;;;;0.93;0.90;;;;;;;18.99;58.18;96982.94;10411325;28;20049;-55
2023/05/17 03:47:42;;;;;;;0.93;0.93;;;;;;;19.00;58.10;97000.75;10407994;28;20042;-56
2023/05/17 03:53:02;;;;;;;1.05;0.90;;;;;;;18.98;57.99;97011.06;10408835;28;20042;-55
2023/05/17 03:58:22;;;;;;;0.80;0.80;;;;;;;18.98;57.94;97002.97;10419417;28;20144;-55
2023/05/17 04:03:42;;;;;;;0.82;0.82;;;;;;;18.98;57.88;97002.97;10395457;28;20053;-55
2023/05/17 04:09:02;;;;;;;0.88;0.88;;;;;;;18.98;57.73;97008.34;10392062;28;20156;-55
2023/05/17 04:14:21;;;;;;;1.48;1.30;;;;;;;18.99;57.82;97011.84;10410663;28;20042;-55
2023/05/17 04:19:41;;;;;;;1.23;1.00;;;;;;;18.97;57.95;97028.34;10410343;28;20445;-55
2023/05/17 04:25:00;;;;;;;2.13;1.00;;;;;;;18.97;57.93;97033.75;10425174;28;20038;-55
2023/05/17 04:30:22;;;;;;;1.10;1.00;;;;;;;18.98;57.76;97032.66;10412003;28;20038;-55
2023/05/17 04:35:42;;;;;;;1.50;0.98;;;;;;;18.98;57.92;97046.16;10418080;28;20053;-55
2023/05/17 04:41:03;;;;;;;1.10;0.98;;;;;;;19.00;58.20;97054.75;10430973;28;20394;-55
2023/05/17 04:46:23;;;;;;;1.27;0.82;;;;;;;19.01;58.53;97060.91;10416952;28;20052;-56
2023/05/17 04:51:43;;;;;;;2.17;0.93;;;;;;;19.01;58.50;97061.72;10402837;28;20077;-56
2023/05/17 04:57:04;;;;;;;1.00;0.90;;;;;;;19.02;58.40;97074.13;10416501;28;20049;-55
2023/05/17 05:02:48;;;;;;;3.10;1.30;;;;;;;19.03;58.16;97085.72;10376743;28;20483;-56
2023/05/17 05:08:08;;;;;;;2.80;1.25;;;;;;;19.06;57.88;97104.00;10395935;28;20041;-56
2023/05/17 05:13:28;;;;;;;3.42;1.50;;;;;;;19.06;57.79;97110.19;10410960;28;20410;-56
2023/05/17 05:18:48;;;;;;;5.50;1.65;;;;;;;19.08;57.88;97120.69;10392348;28;20052;-56
2023/05/17 05:24:08;;;;;;;5.30;2.03;;;;;;;19.09;57.93;97117.66;10398469;28;20592;-56
2023/05/17 05:29:28;;;;;;;7.43;2.25;;;;;;;19.11;58.03;97118.16;10403800;28;20053;-56
2023/05/17 05:34:47;;;;;;;10.18;3.20;;;;;;;19.14;57.95;97132.91;10390111;28;20045;-56
2023/05/17 05:40:08;;;;;;;10.07;3.33;;;;;;;19.16;57.89;97136.88;10412772;28;20077;-56
2023/05/17 05:45:28;;;;;;;8.23;2.55;;;;;;;19.18;57.93;97139.28;10402318;28;20041;-56
2023/05/17 05:50:53;;;;;;;10.18;3.10;;;;;;;19.21;57.94;97154.88;10419856;28;20049;-56
2023/05/17 05:56:13;;;;;;;8.00;3.08;;;;;;;19.25;57.79;97150.44;10414134;28;20045;-56
2023/05/17 06:01:32;;;;;;;8.68;3.20;;;;;;;19.28;57.71;97157.13;10426672;28;20042;-56
2023/05/17 06:06:53;;;;;;;10.30;3.03;;;;;;;19.30;57.83;97149.50;10427571;28;20041;-56
2023/05/17 06:12:12;;;;;;;9.60;2.95;;;;;;;19.32;57.72;97158.88;10419728;28;20080;-56
2023/05/17 06:17:32;;;;;;;7.63;3.25;;;;;;;19.36;57.69;97175.25;10426378;28;20057;-56
2023/05/17 06:22:51;;;;;;;10.38;3.22;;;;;;;19.40;57.81;97180.81;10427978;28;20049;-56
2023/05/17 06:28:11;;;;;;;8.80;2.97;;;;;;;19.43;57.70;97185.63;10427540;28;20049;-56
2023/05/17 06:33:30;;;;;;;8.65;3.40;;;;;;;19.46;57.63;97183.06;10427089;28;20057;-56
2023/05/17 06:38:50;;;;;;;10.90;3.67;;;;;;;19.50;57.60;97185.94;10426859;28;20049;-56
2023/05/17 06:44:09;;;;;;;10.02;3.33;;;;;;;19.52;57.58;97183.72;10426945;28;20046;-56
2023/05/17 06:49:29;;;;;;;12.95;3.55;;;;;;;19.54;57.66;97185.00;10410071;28;20107;-56
2023/05/17 06:54:49;;;;;;;9.02;3.17;;;;;;;19.59;57.37;97191.38;10427225;28;20499;-56
2023/05/17 07:00:09;;;;;;;8.90;2.97;;;;;;;19.61;57.38;97205.38;10417714;28;20049;-56
2023/05/17 07:05:29;;;;;;;8.25;3.10;;;;;;;19.63;57.32;97190.41;10424642;28;20045;-56
2023/05/17 07:10:52;;;;;;;11.07;3.30;;;;;;;19.66;57.28;97183.56;10426250;28;20056;-56
2023/05/17 07:16:12;;;;;;;10.70;3.25;;;;;;;19.67;57.21;97196.00;10425023;28;20046;-56
2023/05/17 07:21:32;;;;;;;6.93;3.05;;;;;;;19.69;57.14;97183.75;10417738;28;20099;-56
2023/05/17 07:26:51;;;;;;;7.88;2.83;;;;;;;19.70;57.00;97200.78;10426028;28;20474;-56
2023/05/17 07:32:11;;;;;;;9.18;3.33;;;;;;;19.71;57.13;97203.19;10426248;28;20041;-56
2023/05/17 07:37:30;;;;;;;7.25;2.42;;;;;;;19.73;57.02;97209.06;10425844;28;20052;-56
2023/05/17 07:42:50;;;;;;;6.38;2.90;;;;;;;19.74;56.93;97199.84;10403552;28;20052;-56
2023/05/17 07:48:10;;;;;;;8.57;2.80;;;;;;;19.77;56.98;97203.03;10398045;28;20042;-55
2023/05/17 07:53:29;;;;;;;5.85;2.70;;;;;;;19.78;56.94;97201.91;10408778;28;20045;-56
2023/05/17 07:58:49;;;;;;;6.18;2.65;;;;;;;19.79;56.70;97198.13;10402927;28;20383;-56
2023/05/17 08:04:10;;;;;;;5.55;2.63;;;;;;;19.80;56.88;97205.09;10413642;28;20429;-56
2023/05/17 08:09:29;;;;;;;5.93;2.33;;;;;;;19.80;56.76;97208.63;10412089;28;20069;-56
2023/05/17 08:14:49;;;;;;;7.35;3.20;;;;;;;19.81;56.85;97210.19;10396010;28;20123;-56
2023/05/17 08:20:09;;;;;;;6.05;2.50;;;;;;;19.82;56.83;97221.81;10411366;28;20050;-56
2023/05/17 08:25:28;;;;;;;6.30;2.55;;;;;;;19.83;56.77;97224.19;10385015;28;20050;-56
2023/05/17 08:30:48;;;;;;;8.80;3.33;;;;;;;19.77;50.65;97236.28;10422419;28;20103;-56
2023/05/17 08:36:08;;;;;;;4.45;2.13;;;;;;;19.76;52.94;97223.88;10431830;28;20049;-56
2023/05/17 08:41:28;;;;;;;5.25;2.50;;;;;;;19.79;55.54;97235.97;10431876;28;20095;-56
2023/05/17 08:46:52;;;;;;;5.70;2.55;;;;;;;19.81;54.94;97242.63;10424562;28;20046;-55
2023/05/17 08:52:12;;;;;;;6.25;2.45;;;;;;;19.82;54.90;97232.63;10385730;28;20049;-56
2023/05/17 08:57:34;;;;;;;4.50;2.30;;;;;;;19.83;54.90;97239.63;10394277;28;20053;-56
2023/05/17 09:02:54;;;;;;;4.43;2.20;;;;;;;19.84;54.91;97231.19;10419981;28;20091;-56
2023/05/17 09:08:14;;;;;;;3.33;2.13;;;;;;;19.85;54.97;97237.41;10417885;28;20053;-56
2023/05/17 09:13:33;;;;;;;4.93;2.40;;;;;;;19.85;54.93;97249.00;10417589;28;20091;-56
2023/05/17 09:18:54;;;;;;;7.93;2.75;;;;;;;19.84;54.99;97258.25;10430544;28;20045;-56
2023/05/17 09:24:13;;;;;;;5.00;2.65;;;;;;;19.85;54.99;97246.31;10416300;28;20076;-56
2023/05/17 09:29:34;;;;;;;4.45;2.03;;;;;;;19.86;55.09;97250.63;10430116;28;20095;-56
2023/05/17 09:34:55;;;;;;;6.55;2.42;;;;;;;19.85;55.06;97259.03;10415875;28;20049;-56
2023/05/17 09:40:22;;;;;;;5.10;2.40;;;;;;;19.85;55.00;97257.13;10414061;28;20418;-56
2023/05/17 09:45:42;;;;;;;3.97;2.05;;;;;;;19.86;55.14;97256.03;10387012;28;20041;-56
2023/05/17 09:51:02;;;;;;;6.53;2.58;;;;;;;19.86;55.22;97256.03;10407681;28;20050;-56
2023/05/17 09:56:22;;;;;;;5.57;2.35;;;;;;;19.86;55.23;97261.44;10429038;28;20060;-56
2023/05/17 10:01:46;;;;;;;3.30;2.00;;;;;;;19.86;55.15;97260.63;10427680;28;20044;-56
2023/05/17 10:07:06;;;;;;;3.08;2.17;;;;;;;19.87;55.12;97262.22;10428292;28;20477;-56
2023/05/17 10:12:32;;;;;;;2.83;1.85;;;;;;;19.86;55.17;97250.63;10428988;28;20559;-56
2023/05/17 10:17:52;;;;;;;3.38;1.80;;;;;;;19.86;55.31;97255.22;10405684;28;20054;-56
2023/05/17 10:23:12;;;;;;;3.20;1.90;;;;;;;19.87;55.33;97262.22;10411007;28;20516;-56
2023/05/17 10:28:32;;;;;;;3.33;2.00;;;;;;;19.86;55.27;97261.44;10426946;28;20045;-56
2023/05/17 10:33:51;;;;;;;3.13;2.10;;;;;;;19.86;55.33;97261.44;10427084;28;20041;-56
2023/05/17 10:39:11;;;;;;;3.60;2.08;;;;;;;19.86;55.29;97258.72;10410280;28;20052;-56
2023/05/17 10:44:35;;;;;;;4.15;2.08;;;;;;;19.86;55.28;97261.44;10413179;28;20119;-56
2023/05/17 10:49:54;;;;;;;2.88;1.90;;;;;;;19.87;55.34;97260.31;10382761;28;20080;-56
2023/05/17 10:55:19;;;;;;;3.33;1.75;;;;;;;19.86;55.57;97256.03;10398705;28;20045;-55
2023/05/17 11:00:47;;;;;;;2.95;1.90;;;;;;;19.87;55.41;97246.00;10418627;28;20104;-56
2023/05/17 11:06:09;;;;;;;2.63;1.65;;;;;;;19.86;55.43;97250.63;10422035;28;20424;-56
2023/05/17 11:11:29;;;;;;;2.70;1.90;;;;;;;19.85;55.41;97253.63;10377765;28;20104;-56
2023/05/17 11:16:55;;;;;;;3.53;1.85;;;;;;;19.85;55.37;97259.81;10397719;28;20410;-56
2023/05/17 11:22:16;;;;;;;3.42;1.85;;;;;;;19.85;55.41;97250.91;10401364;28;20079;-56
2023/05/17 11:27:37;;;;;;;3.50;1.92;;;;;;;19.85;55.37;97248.22;10413350;28;20049;-56
2023/05/17 11:33:01;;;;;;;2.60;1.75;;;;;;;19.84;55.54;97250.13;10423496;28;20046;-56
2023/05/17 11:38:23;;;;;;;2.33;1.60;;;;;;;19.85;55.42;97254.41;10420470;28;20045;-56
2023/05/17 11:43:47;;;;;;;2.22;1.48;;;;;;;19.85;55.37;97256.31;10399610;28;20089;-56
2023/05/17 11:49:07;;;;;;;2.75;1.50;;;;;;;19.84;55.44;97263.66;10404992;28;20053;-56
2023/05/17 11:54:28;;;;;;;3.55;1.70;;;;;;;19.84;55.41;97263.66;10403292;28;20100;-56
2023/05/17 11:59:48;;;;;;;2.50;1.60;;;;;;;19.84;55.35;97270.97;10395545;28;20037;-56
2023/05/17 12:05:07;;;;;;;3.13;1.75;;;;;;;19.84;55.39;97265.56;10429702;28;20037;-56
2023/05/17 12:10:28;;;;;;;2.55;1.70;;;;;;;19.84;55.41;97277.16;10432810;28;20045;-56
2023/05/17 12:15:56;;;;;;;3.08;1.80;;;;;;;19.83;55.37;97280.97;10431946;28;20041;-56
2023/05/17 12:21:17;;;;;;;2.20;1.57;;;;;;;19.85;55.41;97302.28;10418190;28;20045;-56
2023/05/17 12:26:44;;;;;;;4.25;1.73;;;;;;;19.82;55.34;97295.63;10432301;28;20041;-56
2023/05/17 12:32:05;;;;;;;1.80;1.38;;;;;;;19.82;55.34;97295.63;10416435;28;20046;-56
2023/05/17 12:37:24;;;;;;;1.95;1.50;;;;;;;19.82;55.34;97298.31;10415890;28;20045;-55
2023/05/17 12:42:44;;;;;;;3.83;1.85;;;;;;;19.82;55.36;97298.31;10378723;28;20049;-56
2023/05/17 12:48:04;;;;;;;2.85;1.67;;;;;;;19.81;55.31;97294.00;10388394;28;20067;-55
2023/05/17 12:53:34;;;;;;;2.95;1.52;;;;;;;19.80;55.27;97280.78;10412612;28;20045;-55
2023/05/17 12:59:11;;;;;;;2.22;1.58;;;;;;;19.81;55.20;97294.00;10417255;28;20048;-55
2023/05/17 13:04:32;;;;;;;1.60;1.40;;;;;;;19.80;55.16;97283.50;10430738;28;20045;-55
2023/05/17 13:09:52;;;;;;;1.15;1.05;;;;;;;19.80;55.08;97278.09;10430594;28;20038;-55
2023/05/17 13:15:13;;;;;;;2.33;1.40;;;;;;;19.80;55.06;97286.19;10429552;28;20095;-55
2023/05/17 13:20:33;;;;;;;2.75;1.10;;;;;;;19.78;55.07;97286.53;10416404;28;20049;-55
2023/05/17 13:25:52;;;;;;;1.95;1.20;;;;;;;19.79;55.08;97284.63;10417277;28;20041;-55
2023/05/17 13:31:12;;;;;;;1.65;1.15;;;;;;;19.78;55.11;97262.22;10404659;28;20085;-55
2023/05/17 13:36:32;;;;;;;1.60;1.40;;;;;;;19.78;55.04;97264.09;10420687;28;20064;-55
2023/05/17 13:41:51;;;;;;;2.50;1.40;;;;;;;19.75;55.07;97281.75;10429808;28;20429;-55
2023/05/17 13:47:11;;;;;;;2.65;1.50;;;;;;;19.77;55.00;97284.94;10428773;28;20037;-55
2023/05/17 13:52:31;;;;;;;2.15;1.50;;;;;;;19.76;55.06;97288.75;10388814;28;20053;-55
2023/05/17 13:57:50;;;;;;;2.35;1.50;;;;;;;19.76;55.04;97283.34;10388753;28;20049;-55
2023/05/17 14:03:11;;;;;;;2.20;1.60;;;;;;;19.74;55.07;97283.66;10425516;28;20045;-55
2023/05/17 14:08:32;;;;;;;2.90;1.70;;;;;;;19.75;55.13;97281.75;10415859;28;20486;-55
2023/05/17 14:13:52;;;;;;;4.45;1.88;;;;;;;19.74;55.02;97275.53;10397633;28;20045;-55
2023/05/17 14:19:11;;;;;;;6.57;2.35;;;;;;;19.74;55.08;97285.56;10405117;28;20375;-55
2023/05/17 14:24:31;;;;;;;5.78;2.20;;;;;;;19.73;55.06;97300.97;10427011;28;20037;-55
2023/05/17 14:29:51;;;;;;;7.63;2.55;;;;;;;19.73;55.18;97295.56;10427882;28;20042;-55
2023/05/17 14:35:10;;;;;;;8.10;2.88;;;;;;;19.62;50.24;97313.16;10427781;28;20120;-55
2023/05/17 14:40:30;;;;;;;8.27;3.10;;;;;;;19.64;53.34;97321.75;10393429;28;20151;-55
2023/05/17 14:45:50;;;;;;;13.23;3.30;;;;;;;19.62;49.88;97304.25;10426932;28;20450;-55
2023/05/17 14:51:09;;;;;;;7.80;2.53;;;;;;;19.62;52.46;97315.88;10379902;28;20084;-55
2023/05/17 14:56:29;;;;;;;6.53;2.50;;;;;;;19.64;53.36;97312.84;10420552;28;20057;-55
2023/05/17 15:01:49;;;;;;;9.13;2.90;;;;;;;19.64;53.59;97335.28;10392092;28;20058;-54
2023/05/17 15:07:09;;;;;;;9.70;3.17;;;;;;;19.65;54.09;97336.84;10426347;28;20045;-54
2023/05/17 15:12:29;;;;;;;5.18;2.38;;;;;;;19.66;54.38;97326.81;10426775;28;20452;-55
2023/05/17 15:17:48;;;;;;;4.78;1.92;;;;;;;19.68;54.72;97330.00;10426269;28;20046;-55
2023/05/17 15:23:08;;;;;;;24.13;6.25;;;;;;;19.67;55.11;97329.22;10412050;28;20033;-57
2023/05/17 15:28:28;;;;;;;12.98;3.70;;;;;;;19.68;55.47;97324.63;10426185;28;20041;-57
2023/05/17 15:33:47;;;;;;;11.43;3.50;;;;;;;19.68;55.68;97319.22;10411109;28;20041;-58
2023/05/17 15:39:07;;;;;;;5.75;1.50;;;;;;;19.65;55.99;97336.84;10412929;28;20384;-57
2023/05/17 15:44:26;;;;;;;10.27;3.05;;;;;;;19.67;56.00;97336.53;10396837;28;20068;-57
2023/05/17 15:49:46;;;;;;;5.55;2.05;;;;;;;19.66;56.20;97340.34;10398042;28;20421;-61
2023/05/17 15:55:06;;;;;;;12.23;3.70;;;;;;;19.65;55.56;97342.25;10432884;28;20490;-60
2023/05/17 16:00:26;;;;;;;9.88;3.15;;;;;;;19.64;56.11;97337.16;10433414;28;20045;-61
2023/05/17 16:05:46;;;;;;;9.55;3.17;;;;;;;19.64;56.01;97350.66;10379769;28;20406;-55
2023/05/17 16:11:06;;;;;;;9.65;3.15;;;;;;;19.63;56.46;97349.09;10406035;28;20050;-56
2023/05/17 16:16:25;;;;;;;6.75;2.90;;;;;;;19.63;56.54;97357.19;10418423;28;20061;-56
2023/05/17 16:21:46;;;;;;;6.22;2.70;;;;;;;19.63;56.57;97362.59;10432222;28;20092;-56
2023/05/17 16:27:06;;;;;;;7.88;3.38;;;;;;;19.63;56.83;97373.41;10395460;28;20052;-57
2023/05/17 16:32:25;;;;;;;4.47;2.30;;;;;;;19.63;56.79;97370.72;10422171;28;20405;-59
2023/05/17 16:37:45;;;;;;;5.50;2.33;;;;;;;19.63;56.75;97378.81;10432170;28;20041;-58
2023/05/17 16:43:05;;;;;;;6.90;2.63;;;;;;;19.62;56.81;97382.63;10431742;28;20091;-58
2023/05/17 16:48:25;;;;;;;6.63;2.90;;;;;;;19.61;56.80;97389.94;10419031;28;20054;-58
2023/05/17 16:53:44;;;;;;;7.88;3.20;;;;;;;19.61;56.94;97387.22;10391193;28;20045;-59
2023/05/17 16:59:04;;;;;;;2.75;1.25;;;;;;;19.62;57.06;97393.44;10391364;28;20045;-62
2023/05/17 17:04:24;;;;;;;5.35;2.25;;;;;;;19.61;57.08;97389.16;10392016;28;20042;-59
2023/05/17 17:09:44;;;;;;;5.00;2.03;;;;;;;19.61;56.84;97384.53;10430982;28;20041;-58
2023/05/17 17:15:05;;;;;;;8.02;2.72;;;;;;;19.60;56.81;97377.53;10403270;28;20052;-58
2023/05/17 17:20:24;;;;;;;5.63;2.20;;;;;;;19.61;56.78;97386.44;10403504;28;20045;-59
2023/05/17 17:25:44;;;;;;;8.85;2.70;;;;;;;19.60;56.82;97404.56;10429865;28;20413;-57
2023/05/17 17:31:05;;;;;;;7.00;2.92;;;;;;;19.60;56.90;97407.28;10430093;28;20080;-57
2023/05/17 17:36:24;;;;;;;4.75;1.90;;;;;;;19.61;57.05;97405.38;10402678;28;20454;-56
2023/05/17 17:41:44;;;;;;;6.55;2.78;;;;;;;19.60;57.11;97415.38;10417262;28;20494;-56
2023/05/17 17:47:04;;;;;;;8.18;3.05;;;;;;;19.59;56.84;97419.19;10429344;28;20486;-56
2023/05/17 17:52:24;;;;;;;10.13;2.78;;;;;;;19.61;56.94;97424.28;10390269;28;20058;-60
2023/05/17 17:57:43;;;;;;;5.70;2.28;;;;;;;19.59;56.83;97419.19;10392156;28;20100;-59
2023/05/17 18:03:03;;;;;;;7.45;2.80;;;;;;;19.59;56.96;97424.59;10428090;28;20037;-58
2023/05/17 18:08:23;;;;;;;3.97;2.15;;;;;;;19.59;57.00;97434.59;10416538;28;20097;-58
2023/05/17 18:13:42;;;;;;;8.25;2.53;;;;;;;19.59;56.97;97443.50;10413145;28;20045;-59
2023/05/17 18:19:01;;;;;;;9.05;2.80;;;;;;;19.59;57.13;97440.00;10427937;28;20445;-60
2023/05/17 18:24:21;;;;;;;5.53;2.80;;;;;;;19.56;56.85;97447.63;10422304;28;20571;-60
2023/05/17 18:29:40;;;;;;;6.45;2.65;;;;;;;19.58;57.15;97454.63;10428206;28;20034;-56
2023/05/17 18:35:00;;;;;;;5.43;2.63;;;;;;;19.54;56.90;97460.66;10415588;28;20489;-55
2023/05/17 18:40:19;;;;;;;7.60;2.70;;;;;;;19.55;56.81;97473.06;10427121;28;20103;-58
2023/05/17 18:45:39;;;;;;;9.30;3.00;;;;;;;19.55;56.90;97481.16;10426968;28;20565;-58
2023/05/17 18:50:58;;;;;;;9.05;2.75;;;;;;;19.54;56.95;97484.16;10401248;28;20054;-58
2023/05/17 18:56:21;;;;;;;10.32;3.00;;;;;;;19.54;57.11;97489.56;10402809;28;20041;-59
2023/05/17 19:01:42;;;;;;;5.82;2.53;;;;;;;19.53;56.89;97486.06;10426743;28;20037;-59
2023/05/17 19:07:02;;;;;;;7.30;2.80;;;;;;;19.53;56.91;97490.69;10405677;28;20040;-59
2023/05/17 19:12:22;;;;;;;8.43;2.95;;;;;;;19.53;57.09;97496.88;10426271;28;20041;-56
2023/05/17 19:17:41;;;;;;;6.88;2.58;;;;;;;19.53;56.95;97494.19;10388844;28;20046;-55
2023/05/17 19:23:00;;;;;;;6.70;2.75;;;;;;;19.52;56.77;97500.72;10407736;28;20095;-55
2023/05/17 19:28:20;;;;;;;5.65;2.33;;;;;;;19.51;56.83;97509.13;10425857;28;20041;-56
2023/05/17 19:33:40;;;;;;;7.22;2.45;;;;;;;19.51;56.68;97511.81;10425691;28;20572;-56
2023/05/17 19:38:59;;;;;;;6.32;2.45;;;;;;;19.51;56.62;97509.91;10403814;28;20045;-56
2023/05/17 19:44:19;;;;;;;4.55;2.35;;;;;;;19.51;56.81;97517.22;10404527;28;20054;-55
2023/05/17 19:49:38;;;;;;;8.73;2.70;;;;;;;19.49;56.56;97506.72;10413281;28;20104;-56
2023/05/17 19:54:57;;;;;;;6.38;2.35;;;;;;;19.49;56.46;97512.13;10385447;28;20049;-55
2023/05/17 20:00:17;;;;;;;3.75;2.35;;;;;;;19.49;56.44;97512.13;10401602;28;20048;-56
2023/05/17 20:05:37;;;;;;;5.72;2.40;;;;;;;19.47;56.47;97505.44;10420967;28;20410;-55
2023/05/17 20:10:57;;;;;;;5.47;2.60;;;;;;;19.48;56.53;97515.94;10388191;28;20049;-55
2023/05/17 20:16:16;;;;;;;5.18;2.35;;;;;;;19.48;57.02;97513.22;10405195;28;20054;-55
2023/05/17 20:21:36;;;;;;;3.97;2.45;;;;;;;19.49;57.03;97511.31;10414932;28;20382;-55
2023/05/17 20:26:56;;;;;;;5.68;2.40;;;;;;;19.49;56.97;97506.72;10430624;28;20048;-55
2023/05/17 20:32:15;;;;;;;4.35;2.05;;;;;;;19.47;57.33;97522.44;10432376;28;20041;-56
2023/05/17 20:37:35;;;;;;;5.38;2.30;;;;;;;19.47;56.75;97522.44;10432236;28;20045;-56
2023/05/17 20:42:55;;;;;;;4.50;2.30;;;;;;;19.46;56.60;97526.22;10422004;28;20041;-56
2023/05/17 20:48:15;;;;;;;4.80;2.00;;;;;;;19.44;56.43;97520.31;10403682;28;20052;-56
2023/05/17 20:53:35;;;;;;;6.60;2.25;;;;;;;19.43;56.25;97524.16;10394316;28;20092;-56
2023/05/17 20:58:54;;;;;;;4.85;2.22;;;;;;;19.44;56.24;97531.13;10394234;28;20052;-56
2023/05/17 21:04:16;;;;;;;3.22;1.92;;;;;;;19.43;56.09;97529.56;10411610;28;20048;-56
2023/05/17 21:09:35;;;;;;;4.40;2.40;;;;;;;19.42;56.12;97524.44;10430957;28;20045;-56
2023/05/17 21:14:55;;;;;;;4.28;2.10;;;;;;;19.41;55.90;97523.66;10430636;28;20049;-56
2023/05/17 21:20:15;;;;;;;3.47;1.83;;;;;;;19.42;55.97;97527.16;10429777;28;20482;-56
2023/05/17 21:25:37;;;;;;;3.38;1.90;;;;;;;19.41;55.92;97522.88;10406156;28;20398;-56
2023/05/17 21:30:57;;;;;;;4.30;2.50;;;;;;;19.40;55.92;97522.03;10417326;28;20042;-56
2023/05/17 21:36:16;;;;;;;4.30;2.20;;;;;;;19.39;55.98;97520.47;10428675;28;20046;-56
2023/05/17 21:41:35;;;;;;;3.38;1.92;;;;;;;19.37;55.72;97530.78;10430501;28;20095;-56
2023/05/17 21:46:55;;;;;;;5.18;2.15;;;;;;;19.38;55.79;97526.16;10415974;28;20053;-56
2023/05/17 21:52:15;;;;;;;2.90;1.90;;;;;;;19.38;55.80;97529.66;10409912;28;20046;-56
2023/05/17 21:57:35;;;;;;;4.25;2.00;;;;;;;19.37;55.72;97528.06;10388959;28;20057;-56
2023/05/17 22:02:55;;;;;;;2.92;1.88;;;;;;;19.35;55.78;97528.38;10417905;28;20041;-56
2023/05/17 22:08:14;;;;;;;3.03;1.83;;;;;;;19.34;55.75;97534.88;10399527;28;20410;-56
2023/05/17 22:13:34;;;;;;;3.50;1.83;;;;;;;19.34;55.77;97523.28;10396087;28;20041;-56
2023/05/17 22:18:53;;;;;;;3.45;2.00;;;;;;;19.33;55.61;97530.59;10428168;28;20410;-56
2023/05/17 22:24:13;;;;;;;3.20;1.90;;;;;;;19.33;55.71;97522.47;10407794;28;20053;-56
2023/05/17 22:29:33;;;;;;;3.20;1.90;;;;;;;19.33;55.64;97530.59;10423819;28;20041;-56
2023/05/17 22:34:54;;;;;;;2.53;1.70;;;;;;;19.32;55.68;97533.59;10427694;28;20049;-56
2023/05/17 22:40:14;;;;;;;2.80;1.63;;;;;;;19.32;55.59;97533.59;10425325;28;20049;-56
2023/05/17 22:45:34;;;;;;;2.95;1.60;;;;;;;19.30;55.54;97533.09;10387115;28;20101;-56
2023/05/17 22:50:53;;;;;;;3.65;1.70;;;;;;;19.30;55.50;97535.78;10412530;28;20107;-56
2023/05/17 22:56:13;;;;;;;3.67;1.70;;;;;;;19.29;55.47;97536.91;10401734;28;20041;-56
2023/05/17 23:01:32;;;;;;;3.33;1.65;;;;;;;19.28;55.49;97533.38;10396881;28;20445;-56
2023/05/17 23:06:52;;;;;;;3.08;1.63;;;;;;;19.28;55.43;97532.59;10426474;28;20045;-56
2023/05/17 23:12:13;;;;;;;2.85;1.70;;;;;;;19.27;55.47;97533.72;10404197;28;20046;-56
2023/05/17 23:17:32;;;;;;;3.00;1.63;;;;;;;19.26;55.50;97529.41;10396025;28;20037;-56
2023/05/17 23:22:52;;;;;;;2.42;1.70;;;;;;;19.26;55.49;97532.91;10424742;28;20052;-56
2023/05/17 23:28:13;;;;;;;3.85;1.60;;;;;;;19.25;55.46;97528.59;10421747;28;20406;-56
2023/05/17 23:33:32;;;;;;;2.00;1.63;;;;;;;19.24;55.44;97532.41;10386256;28;20042;-56
2023/05/17 23:38:52;;;;;;;2.00;1.52;;;;;;;19.24;55.50;97524.28;10394682;28;20053;-56
2023/05/17 23:44:12;;;;;;;1.92;1.55;;;;;;;19.23;55.38;97517.31;10397605;28;20046;-56
2023/05/17 23:49:32;;;;;;;2.50;1.73;;;;;;;19.22;55.44;97515.69;10392641;28;20058;-56
2023/05/17 23:54:56;;;;;;;2.85;1.65;;;;;;;19.22;55.46;97517.59;10388487;28;20046;-56
